Muscatine, IA (52761)

7:41 PM CDT on October 24, 2014 (GMT -0500)
MesoWest I-92 @ Muscatine/Mississippi Riv IL US ILDOT | Change Station
CLOSE
Current Station
Personal Weather Station
Location: Muscatine, IA
Elevation: 534 ft
Nearby Weather Stations

Elev 534 ft 41.42 °N, 91.03 °W | Updated 45 minutes ago

Overcast
Overcast
61 °F
Feels Like 61 °F
N
1
Wind Variable Wind from NNE
Gusts 8.0 mph

Today
High -- | Low -- °F
--% Chance of Precip.
Yesterday
High -- | Low -- °F
Precip. -- in
7:26 AM 6:09 PM
New Moon, 1% visible
Pressure 29.96 in
Visibility 9.0 miles
Clouds Mostly Cloudy 2300 ft
Overcast 3400 ft
Dew Point 60 °F
Humidity 95%
Rainfall -999.00 in
Snow Depth Not available.
UV 0 out of 12
Pollen 1.50 out of 12
Air Quality Not available.
Flu Activity Sporadic
METAR KMUT 250035Z AUTO 22003KT 9SM BKN023 OVC034 16/15 A2996 RMK AO2

More Conditions Fewer Conditions

Pressure 29.96 in
Visibility 9.0 miles
Clouds Mostly Cloudy 2300 ft
Overcast 3400 ft
Dew Point 60 °F
Humidity 95%
Rainfall -999.00 in
Snow Depth Not available.
UV 0 out of 12
Pollen 1.50 out of 12
Air Quality Not available.
Flu Activity Sporadic
METAR KMUT 250035Z AUTO 22003KT 9SM BKN023 OVC034 16/15 A2996 RMK AO2

More Conditions Fewer Conditions

10-Day Weather Forecast

Almanac

Astronomy

Oct. 24, 2014 Rise Set
Actual Time 7:26 AM CDT 6:09 PM CDT
Civil Twilight 6:57 AM CDT 6:37 PM CDT
Nautical Twilight 6:25 AM CDT 7:10 PM CDT
Astronomical Twilight 5:53 AM CDT 7:42 PM CDT
Moon 8:05 AM CDT (10/24) 6:49 PM CDT (10/24)
Length of Visible Light 11h 39m
Length of Day
10h 43m
Tomorrow will be 2m 34s shorter.
New Moon, 1% of the Moon is Illuminated
Today
New Moon
Oct 30
First Quarter
Nov 6
Full
Nov 14
Last Quarter
Nov 22
New

Today's Extremes

State Highs State Lows

Community

WunderPhotos

Upload Photos

1,764,735 photos uploaded!

WunderBlogs® & News

Nearby

Snow Depth

Station Depth Elevation
No new snow has been reported.

Earthquake Activity

City Distance Mag. Time & Date
No recent earthquake activity has been reported nearby.
Minimum magnitude displayed is 2.5.

Coastal Water Temperatures

Place Temperature
No Stations Reporting

Nearby Weather Stations